Terminal Aerodrome Forecast
Issued by NWS

Home | Current Version | Previous Version | Text Only | Print | Product List | Glossary On
Versions: 1 2 3 4 5 6 7 8 9 10 11 12 13 14 15
020
FTUS42 KMLB 232321
TAFLEE
TAF
KLEE 232321Z 2400/2424 26005KT P6SM VCTS SCT040CB BKN250
      TEMPO 2400/2402 4SM TSRA BKN035CB BKN080
     FM240200 00000KT P6SM SCT250
     FM241600 13006KT P6SM SCT050 SCT250
     FM242100 10009KT P6SM SCT045 SCT250=

USA.gov is the U.S. government's official web portal to all federal, state and local government web resources and services.